createdAt,value
2022-11-29T00:01:43.518Z,96755.59
2022-11-29T00:04:13.673Z,96750.94
2022-11-29T00:06:42.549Z,96757.81
2022-11-29T00:09:12.778Z,96754.72
2022-11-29T00:11:59.042Z,96760.50
2022-11-29T00:14:27.179Z,96755.88
2022-11-29T00:16:59.498Z,96747.41
2022-11-29T00:19:28.978Z,96748.91
2022-11-29T00:21:57.880Z,96756.25
2022-11-29T00:24:26.707Z,96744.69
2022-11-29T00:26:53.259Z,96745.03
2022-11-29T00:29:19.805Z,96746.56
2022-11-29T00:31:48.939Z,96747.34
2022-11-29T00:34:15.431Z,96743.88
2022-11-29T00:36:42.054Z,96750.03
2022-11-29T00:39:16.285Z,96743.09
2022-11-29T00:41:43.393Z,96742.69
2022-11-29T00:44:13.970Z,96740.78
2022-11-29T00:46:43.457Z,96741.91
2022-11-29T00:49:12.303Z,96740.72
2022-11-29T00:51:38.888Z,96739.22
2022-11-29T00:54:05.543Z,96739.16
2022-11-29T00:56:34.492Z,96734.53
2022-11-29T00:59:00.946Z,96738.41
2022-11-29T01:01:32.140Z,96737.22
2022-11-29T01:04:02.962Z,96738.00
2022-11-29T01:06:31.815Z,96734.53
2022-11-29T01:08:58.318Z,96735.31
2022-11-29T01:11:30.705Z,96736.06
2022-11-29T01:13:59.921Z,96741.47
2022-11-29T01:16:27.782Z,96742.59
2022-11-29T01:18:54.356Z,96739.53
2022-11-29T01:21:24.718Z,96742.59
2022-11-29T01:23:55.055Z,96745.31
2022-11-29T01:26:24.892Z,96741.84
2022-11-29T01:31:42.313Z,96739.91
2022-11-29T01:34:11.853Z,96736.03
2022-11-29T01:36:40.815Z,96736.81
2022-11-29T01:39:09.842Z,96737.59
2022-11-29T01:41:37.666Z,96741.03
2022-11-29T01:44:09.496Z,96741.03
2022-11-29T01:46:45.315Z,96736.41
2022-11-29T01:49:31.781Z,96734.13
2022-11-29T01:52:02.837Z,96726.50
2022-11-29T01:54:30.776Z,96729.16
2022-11-29T01:59:48.365Z,96732.28
2022-11-29T02:02:29.742Z,96731.84
2022-11-29T02:04:58.480Z,96729.94
2022-11-29T02:07:25.342Z,96721.50
2022-11-29T02:09:51.935Z,96723.44
2022-11-29T02:12:31.766Z,96724.19
2022-11-29T02:15:32.298Z,96727.28
2022-11-29T02:18:20.872Z,96723.44
2022-11-29T02:21:11.361Z,96720.72
2022-11-29T02:24:02.016Z,96719.59
2022-11-29T02:26:50.062Z,96714.19
2022-11-29T02:29:28.756Z,96719.59
2022-11-29T02:32:04.290Z,96719.22
2022-11-29T02:35:00.610Z,96713.84
2022-11-29T02:38:18.597Z,96716.59
2022-11-29T02:40:59.981Z,96721.72
2022-11-29T02:43:48.188Z,96723.31
2022-11-29T02:46:31.835Z,96723.66
2022-11-29T02:49:22.488Z,96718.97
2022-11-29T02:52:16.753Z,96724.72
2022-11-29T02:54:57.641Z,96719.69
2022-11-29T02:57:41.361Z,96722.69
2022-11-29T03:00:10.300Z,96725.06
2022-11-29T03:02:48.228Z,96726.59
2022-11-29T03:05:53.040Z,96719.69
2022-11-29T03:08:25.418Z,96721.22
2022-11-29T03:11:15.989Z,96722.84
2022-11-29T03:14:08.740Z,96723.69
2022-11-29T03:16:42.866Z,96729.88
2022-11-29T03:19:36.963Z,96732.19
2022-11-29T03:22:12.324Z,96736.44
2022-11-29T03:24:48.129Z,96735.31
2022-11-29T03:27:23.735Z,96739.13
2022-11-29T03:29:59.088Z,96737.19
2022-11-29T03:32:47.455Z,96741.47
2022-11-29T03:35:32.757Z,96748.72
2022-11-29T03:38:28.143Z,96750.31
2022-11-29T03:41:13.194Z,96753.75
2022-11-29T03:43:49.572Z,96749.91
2022-11-29T03:46:31.640Z,96752.59
2022-11-29T03:49:13.410Z,96755.63
2022-11-29T03:51:53.019Z,96753.28
2022-11-29T03:54:28.197Z,96757.91
2022-11-29T03:56:55.134Z,96762.19
2022-11-29T03:59:43.400Z,96759.50
2022-11-29T04:02:37.378Z,96761.03
2022-11-29T04:05:25.595Z,96754.13
2022-11-29T04:08:31.608Z,96759.50
2022-11-29T04:11:33.573Z,96762.97
2022-11-29T04:14:11.963Z,96754.81
2022-11-29T04:16:56.824Z,96765.97
2022-11-29T04:19:41.602Z,96758.34
2022-11-29T04:22:27.779Z,96757.50
2022-11-29T04:25:31.359Z,96760.28
2022-11-29T04:28:10.227Z,96759.13
2022-11-29T04:31:14.347Z,96757.91
2022-11-29T04:34:04.519Z,96762.22
2022-11-29T04:36:50.973Z,96761.41
2022-11-29T04:39:43.766Z,96763.69
2022-11-29T04:42:25.333Z,96760.59
2022-11-29T04:45:16.818Z,96758.34
2022-11-29T04:48:04.587Z,96768.38
2022-11-29T04:51:10.098Z,96764.13
2022-11-29T04:53:54.663Z,96769.53
2022-11-29T04:56:40.613Z,96769.59
2022-11-29T04:59:32.902Z,96774.22
2022-11-29T05:02:02.228Z,96774.66
2022-11-29T05:04:41.077Z,96769.53
2022-11-29T05:07:26.208Z,96773.75
2022-11-29T05:10:20.525Z,96784.53
2022-11-29T05:12:50.135Z,96780.75
2022-11-29T05:15:22.544Z,96777.69
2022-11-29T05:18:16.643Z,96782.66
2022-11-29T05:21:06.166Z,96789.97
2022-11-29T05:23:56.353Z,96791.97
2022-11-29T05:26:31.214Z,96787.03
2022-11-29T05:29:24.051Z,96788.50
2022-11-29T05:31:59.527Z,96793.53
2022-11-29T05:34:34.927Z,96790.81
2022-11-29T05:37:21.210Z,96790.81
2022-11-29T05:40:02.794Z,96792.69
2022-11-29T05:42:54.101Z,96791.19
2022-11-29T05:46:04.532Z,96783.91
2022-11-29T05:49:15.173Z,96797.00
2022-11-29T05:52:34.149Z,96802.69
2022-11-29T05:55:19.250Z,96802.63
2022-11-29T05:58:04.080Z,96801.47
2022-11-29T06:00:45.956Z,96798.84
2022-11-29T06:03:30.011Z,96810.38
2022-11-29T06:06:11.801Z,96806.88
2022-11-29T06:08:44.224Z,96809.56
2022-11-29T06:11:39.792Z,96816.88
2022-11-29T06:14:25.656Z,96807.19
2022-11-29T06:17:15.567Z,96808.75
2022-11-29T06:20:00.677Z,96813.38
2022-11-29T06:22:27.150Z,96817.22
2022-11-29T06:25:06.069Z,96824.56
2022-11-29T06:28:06.654Z,96823.03
2022-11-29T06:30:54.495Z,96824.94
2022-11-29T06:33:28.925Z,96821.13
2022-11-29T06:36:01.294Z,96823.03
2022-11-29T06:38:31.014Z,96819.56
2022-11-29T06:41:02.436Z,96821.13
2022-11-29T06:43:33.600Z,96824.97
2022-11-29T06:46:49.731Z,96823.88
2022-11-29T06:49:45.511Z,96824.63
2022-11-29T06:52:27.220Z,96834.31
2022-11-29T06:55:10.050Z,96839.69
2022-11-29T06:57:55.128Z,96832.34
2022-11-29T07:00:26.984Z,96830.78
2022-11-29T07:03:27.326Z,96833.88
2022-11-29T07:05:57.044Z,96831.19
2022-11-29T07:08:29.181Z,96828.88
2022-11-29T07:10:56.139Z,96833.88
2022-11-29T07:13:23.202Z,96838.88
2022-11-29T07:16:01.394Z,96842.72
2022-11-29T07:18:52.900Z,96840.47
2022-11-29T07:22:04.153Z,96845.47
2022-11-29T07:24:55.191Z,96854.38
2022-11-29T07:27:32.390Z,96853.19
2022-11-29T07:30:05.317Z,96856.31
2022-11-29T07:33:14.582Z,96860.88
2022-11-29T07:36:20.023Z,96854.75
2022-11-29T07:39:06.355Z,96868.16
2022-11-29T07:41:56.352Z,96863.50
2022-11-29T07:44:34.987Z,96860.41
2022-11-29T07:47:03.895Z,96865.00
2022-11-29T07:49:30.452Z,96868.03
2022-11-29T07:51:57.150Z,96856.88
2022-11-29T07:54:24.047Z,96863.03
2022-11-29T07:56:50.595Z,96857.19
2022-11-29T07:59:17.187Z,96861.81
2022-11-29T08:01:46.260Z,96862.56
2022-11-29T08:04:13.812Z,96865.25
2022-11-29T08:06:40.311Z,96870.25
2022-11-29T08:09:07.655Z,96871.38
2022-11-29T08:11:36.738Z,96865.63
2022-11-29T08:14:07.233Z,96872.13
2022-11-29T08:16:38.496Z,96873.25
2022-11-29T08:19:10.041Z,96880.94
2022-11-29T08:21:39.062Z,96884.34
2022-11-29T08:24:07.964Z,96875.41
2022-11-29T08:26:36.758Z,96883.50
2022-11-29T08:29:03.291Z,96881.53
2022-11-29T08:31:32.094Z,96880.72
2022-11-29T08:33:58.681Z,96883.44
2022-11-29T08:36:25.362Z,96880.41
2022-11-29T08:38:59.268Z,96895.00
2022-11-29T08:41:30.541Z,96893.78
2022-11-29T08:43:59.536Z,96892.25
2022-11-29T08:46:46.035Z,96889.50
2022-11-29T08:49:12.614Z,96890.63
2022-11-29T08:51:39.104Z,96891.72
2022-11-29T08:54:05.693Z,96887.88
2022-11-29T08:57:16.561Z,96886.63
2022-11-29T08:59:21.306Z,96884.75
2022-11-29T09:01:50.250Z,96897.72
2022-11-29T09:04:19.211Z,96898.88
2022-11-29T09:06:49.690Z,96897.31
2022-11-29T09:09:18.449Z,96899.91
2022-11-29T09:11:49.624Z,96896.84
2022-11-29T09:14:17.797Z,96904.19
2022-11-29T09:16:46.669Z,96899.47
2022-11-29T09:19:14.324Z,96910.56
2022-11-29T09:21:40.887Z,96905.16
2022-11-29T09:24:10.701Z,96912.53
2022-11-29T09:26:40.642Z,96909.34
2022-11-29T09:29:07.328Z,96909.41
2022-11-29T09:31:35.081Z,96915.25
2022-11-29T09:34:04.029Z,96912.06
2022-11-29T09:36:33.428Z,96911.13
2022-11-29T09:39:03.363Z,96907.59
2022-11-29T09:41:38.474Z,96912.09
2022-11-29T09:44:11.057Z,96921.91
2022-11-29T09:46:58.960Z,96921.44
2022-11-29T09:49:38.965Z,96916.72
2022-11-29T09:52:20.655Z,96922.97
2022-11-29T09:55:44.398Z,96922.25
2022-11-29T09:58:21.509Z,96917.66
2022-11-29T10:00:59.198Z,96918.66
2022-11-29T10:03:31.649Z,96921.84
2022-11-29T10:06:08.456Z,96923.78
2022-11-29T10:08:46.555Z,96914.47
2022-11-29T10:11:30.687Z,96921.16
2022-11-29T10:14:12.568Z,96926.63
2022-11-29T10:17:04.414Z,96916.03
2022-11-29T10:19:37.074Z,96923.53
2022-11-29T10:22:16.614Z,96914.34
2022-11-29T10:24:48.912Z,96921.44
2022-11-29T10:27:23.928Z,96927.75
2022-11-29T10:29:54.065Z,96919.28
2022-11-29T10:32:23.247Z,96917.28
2022-11-29T10:34:57.527Z,96920.59
2022-11-29T10:37:24.740Z,96915.13
2022-11-29T10:39:58.621Z,96910.34
2022-11-29T10:42:47.875Z,96910.31
2022-11-29T10:45:17.159Z,96908.25
2022-11-29T10:47:49.262Z,96919.81
2022-11-29T10:50:29.312Z,96907.59
2022-11-29T10:53:03.448Z,96909.78
2022-11-29T10:55:40.160Z,96905.44
2022-11-29T10:58:17.040Z,96902.06
2022-11-29T11:00:54.673Z,96904.00
2022-11-29T11:03:27.527Z,96912.91
2022-11-29T11:06:04.038Z,96906.53
2022-11-29T11:08:32.359Z,96905.16
2022-11-29T11:11:02.065Z,96905.28
2022-11-29T11:13:31.621Z,96903.47
2022-11-29T11:16:09.495Z,96903.97
2022-11-29T11:18:36.853Z,96905.56
2022-11-29T11:21:08.190Z,96897.94
2022-11-29T11:23:43.310Z,96903.66
2022-11-29T11:26:14.694Z,96899.44
2022-11-29T11:28:47.158Z,96903.50
2022-11-29T11:31:14.223Z,96905.16
2022-11-29T11:33:48.868Z,96907.06
2022-11-29T11:36:23.968Z,96900.16
2022-11-29T11:38:56.995Z,96905.06
2022-11-29T11:41:49.866Z,96899.56
2022-11-29T11:44:49.417Z,96897.59
2022-11-29T11:47:19.880Z,96899.47
2022-11-29T11:49:53.563Z,96896.19
2022-11-29T11:52:27.715Z,96900.06
2022-11-29T11:54:57.992Z,96906.34
2022-11-29T11:57:31.453Z,96906.72
2022-11-29T12:00:06.793Z,96909.47
2022-11-29T12:02:41.101Z,96915.97
2022-11-29T12:05:17.846Z,96909.97
2022-11-29T12:08:07.728Z,96913.97
2022-11-29T12:10:39.809Z,96919.69
2022-11-29T12:13:13.152Z,96924.34
2022-11-29T12:15:49.852Z,96920.47
2022-11-29T12:18:26.400Z,96922.59
2022-11-29T12:20:58.335Z,96923.00
2022-11-29T12:23:30.978Z,96917.91
2022-11-29T12:26:04.544Z,96915.91
2022-11-29T12:28:39.187Z,96912.41
2022-11-29T12:31:33.316Z,96922.88
2022-11-29T12:34:30.661Z,96919.03
2022-11-29T12:37:14.701Z,96913.31
2022-11-29T12:40:22.811Z,96920.50
2022-11-29T12:43:15.883Z,96916.16
2022-11-29T12:46:14.486Z,96922.34
2022-11-29T12:49:05.354Z,96908.09
2022-11-29T12:51:44.105Z,96910.69
2022-11-29T12:54:37.415Z,96910.84
2022-11-29T12:57:10.256Z,96909.28
2022-11-29T12:59:49.683Z,96908.50
2022-11-29T13:02:28.356Z,96909.69
2022-11-29T13:05:52.024Z,96912.69
2022-11-29T13:08:44.881Z,96907.63
2022-11-29T13:11:24.178Z,96915.44
2022-11-29T13:14:20.100Z,96921.41
2022-11-29T13:17:01.511Z,96916.78
2022-11-29T13:19:37.430Z,96920.69
2022-11-29T13:22:06.339Z,96921.59
2022-11-29T13:25:07.423Z,96921.59
2022-11-29T13:27:40.388Z,96922.88
2022-11-29T13:30:07.864Z,96927.50
2022-11-29T13:32:43.491Z,96916.66
2022-11-29T13:35:37.077Z,96929.03
2022-11-29T13:38:21.181Z,96922.03
2022-11-29T13:41:00.523Z,96923.41
2022-11-29T13:43:43.660Z,96921.84
2022-11-29T13:46:24.740Z,96925.28
2022-11-29T13:48:53.624Z,96926.84
2022-11-29T13:51:27.989Z,96925.38
2022-11-29T13:53:56.227Z,96931.97
2022-11-29T13:56:42.562Z,96929.69
2022-11-29T13:59:17.221Z,96927.44
2022-11-29T14:01:51.731Z,96930.50
2022-11-29T14:04:33.698Z,96932.28
2022-11-29T14:07:08.122Z,96937.28
2022-11-29T14:09:50.625Z,96933.13
2022-11-29T14:12:36.691Z,96931.50
2022-11-29T14:15:19.157Z,96932.66
2022-11-29T14:17:47.561Z,96931.50
2022-11-29T14:20:23.121Z,96942.75
2022-11-29T14:23:05.176Z,96939.72
2022-11-29T14:25:51.168Z,96941.84
2022-11-29T14:28:18.406Z,96944.94
2022-11-29T14:30:44.883Z,96942.22
2022-11-29T14:33:20.712Z,96942.50
2022-11-29T14:36:10.305Z,96953.34
2022-11-29T14:39:10.826Z,96948.19
2022-11-29T14:42:04.832Z,96946.97
2022-11-29T14:44:33.161Z,96945.47
2022-11-29T14:47:24.218Z,96951.00
2022-11-29T14:49:57.751Z,96941.31
2022-11-29T14:52:29.260Z,96955.75
2022-11-29T14:54:59.421Z,96955.84
2022-11-29T14:57:47.295Z,96959.81
2022-11-29T15:00:37.133Z,96954.34
2022-11-29T15:03:10.181Z,96963.19
2022-11-29T15:05:57.873Z,96963.97
2022-11-29T15:08:41.835Z,96964.34
2022-11-29T15:11:08.313Z,96968.13
2022-11-29T15:13:37.219Z,96967.81
2022-11-29T15:16:09.799Z,96976.34
2022-11-29T15:19:02.821Z,96966.75
2022-11-29T15:21:41.429Z,96978.41
2022-11-29T15:24:29.043Z,96976.09
2022-11-29T15:27:00.748Z,96976.88
2022-11-29T15:29:32.637Z,96980.44
2022-11-29T15:32:03.815Z,96981.56
2022-11-29T15:34:30.746Z,96989.38
2022-11-29T15:37:00.142Z,96991.69
2022-11-29T15:39:37.824Z,96994.16
2022-11-29T15:42:11.394Z,96994.16
2022-11-29T15:44:46.976Z,96989.53
2022-11-29T15:47:24.369Z,96998.41
2022-11-29T15:49:52.234Z,96988.78
2022-11-29T15:52:24.604Z,96990.69
2022-11-29T15:55:05.575Z,96993.34
2022-11-29T15:57:39.993Z,96998.00
2022-11-29T16:00:12.334Z,97001.91
2022-11-29T16:02:47.521Z,97003.47
2022-11-29T16:05:22.981Z,96999.94
2022-11-29T16:07:59.171Z,97002.25
2022-11-29T16:10:37.502Z,97007.28
2022-11-29T16:13:37.705Z,97003.03
2022-11-29T16:16:04.316Z,97009.56
2022-11-29T16:18:30.869Z,97001.09
2022-11-29T16:21:06.069Z,97006.50
2022-11-29T16:23:42.215Z,97009.59
2022-11-29T16:26:16.325Z,97006.50
2022-11-29T16:28:46.191Z,97005.38
2022-11-29T16:31:24.862Z,97014.31
2022-11-29T16:33:54.521Z,97016.66
2022-11-29T16:36:31.407Z,97014.75
2022-11-29T16:39:06.652Z,97016.69
2022-11-29T16:41:35.556Z,97016.66
2022-11-29T16:44:03.749Z,97021.69
2022-11-29T16:46:31.773Z,97020.91
2022-11-29T16:49:03.745Z,97026.31
2022-11-29T16:51:37.388Z,97023.22
2022-11-29T16:54:18.971Z,97027.84
2022-11-29T16:56:50.832Z,97026.31
2022-11-29T16:59:26.930Z,97029.00
2022-11-29T17:01:55.712Z,97037.88
2022-11-29T17:04:23.876Z,97034.00
2022-11-29T17:06:57.122Z,97027.44
2022-11-29T17:09:30.464Z,97034.00
2022-11-29T17:12:02.391Z,97031.31
2022-11-29T17:14:29.951Z,97036.28
2022-11-29T17:17:03.931Z,97036.72
2022-11-29T17:19:37.607Z,97039.00
2022-11-29T17:22:04.104Z,97044.03
2022-11-29T17:24:30.737Z,97043.66
2022-11-29T17:26:57.320Z,97032.09
2022-11-29T17:29:23.916Z,97042.06
2022-11-29T17:31:50.733Z,97037.44
2022-11-29T17:34:17.601Z,97038.22
2022-11-29T17:36:46.523Z,97033.59
2022-11-29T17:39:15.512Z,97039.03
2022-11-29T17:41:44.275Z,97047.13
2022-11-29T17:44:10.849Z,97046.34
2022-11-29T17:46:37.535Z,97042.88
2022-11-29T17:49:08.445Z,97041.34
2022-11-29T17:51:54.002Z,97044.00
2022-11-29T17:54:23.091Z,97054.00
2022-11-29T17:56:50.108Z,97053.25
2022-11-29T17:59:16.837Z,97057.09
2022-11-29T18:01:47.066Z,97059.41
2022-11-29T18:04:13.963Z,97055.63
2022-11-29T18:06:43.573Z,97062.53
2022-11-29T18:09:11.189Z,97062.94
2022-11-29T18:11:47.987Z,97071.78
2022-11-29T18:14:30.948Z,97061.03
2022-11-29T18:16:57.553Z,97062.53
2022-11-29T18:19:24.467Z,97069.09
2022-11-29T18:21:51.873Z,97067.91
2022-11-29T18:24:20.951Z,97060.97
2022-11-29T18:26:47.962Z,97068.31
2022-11-29T18:29:17.016Z,97071.03
2022-11-29T18:31:46.623Z,97062.19
2022-11-29T18:34:14.700Z,97066.41
2022-11-29T18:36:49.568Z,97067.56
2022-11-29T18:39:19.054Z,97069.50
2022-11-29T18:41:51.623Z,97071.06
2022-11-29T18:44:24.243Z,97077.97
2022-11-29T18:46:50.876Z,97071.03
2022-11-29T18:49:18.510Z,97079.47
2022-11-29T18:51:46.313Z,97072.56
2022-11-29T18:54:14.314Z,97073.31
2022-11-29T18:56:41.871Z,97071.00
2022-11-29T18:59:11.121Z,97077.56
2022-11-29T19:01:42.548Z,97078.38
2022-11-29T19:04:14.782Z,97074.50
2022-11-29T19:06:42.347Z,97083.34
2022-11-29T19:09:16.744Z,97087.59
2022-11-29T19:11:45.706Z,97089.91
2022-11-29T19:14:14.865Z,97083.34
2022-11-29T19:16:43.934Z,97085.28
2022-11-29T19:19:15.375Z,97090.28
2022-11-29T19:21:44.931Z,97086.78
2022-11-29T19:24:14.719Z,97089.88
2022-11-29T19:26:46.188Z,97093.75
2022-11-29T19:29:14.178Z,97089.91
2022-11-29T19:31:43.729Z,97092.97
2022-11-29T19:34:10.471Z,97085.25
2022-11-29T19:36:43.362Z,97091.03
2022-11-29T19:39:16.402Z,97093.72
2022-11-29T19:41:46.045Z,97088.34
2022-11-29T19:44:14.894Z,97090.66
2022-11-29T19:46:45.610Z,97085.28
2022-11-29T19:49:13.564Z,97097.22
2022-11-29T19:51:42.668Z,97097.22
2022-11-29T19:54:10.761Z,97089.53
2022-11-29T19:56:40.450Z,97091.81
2022-11-29T19:59:14.399Z,97094.53
2022-11-29T20:01:43.619Z,97099.94
2022-11-29T20:04:12.829Z,97091.84
2022-11-29T20:06:42.208Z,97101.44
2022-11-29T20:09:09.890Z,97093.34
2022-11-29T20:11:41.276Z,97101.06
2022-11-29T20:14:10.614Z,97097.22
2022-11-29T20:16:39.018Z,97099.53
2022-11-29T20:19:14.155Z,97095.66
2022-11-29T20:21:51.270Z,97098.38
2022-11-29T20:24:19.543Z,97099.91
2022-11-29T20:26:50.581Z,97100.66
2022-11-29T20:29:20.070Z,97100.66
2022-11-29T20:31:50.817Z,97090.28
2022-11-29T20:34:21.422Z,97092.97
2022-11-29T20:36:50.920Z,97096.84
2022-11-29T20:39:38.769Z,97098.38
2022-11-29T20:42:20.518Z,97095.66
2022-11-29T20:44:54.776Z,97100.31
2022-11-29T20:47:25.955Z,97098.38
2022-11-29T20:49:52.857Z,97102.59
2022-11-29T20:52:47.859Z,97106.06
2022-11-29T20:55:14.390Z,97100.69
2022-11-29T20:57:43.077Z,97101.09
2022-11-29T21:00:12.339Z,97108.00
2022-11-29T21:02:39.398Z,97105.69
2022-11-29T21:05:06.751Z,97105.31
2022-11-29T21:07:33.465Z,97103.78
2022-11-29T21:10:02.622Z,97113.00
2022-11-29T21:12:30.583Z,97108.00
2022-11-29T21:14:58.312Z,97103.75
2022-11-29T21:17:30.276Z,97105.31
2022-11-29T21:20:02.819Z,97108.38
2022-11-29T21:22:38.074Z,97112.22
2022-11-29T21:25:10.490Z,97106.06
2022-11-29T21:27:39.485Z,97111.09
2022-11-29T21:30:07.141Z,97109.91
2022-11-29T21:32:34.170Z,97103.00
2022-11-29T21:35:00.710Z,97119.53
2022-11-29T21:37:30.076Z,97117.63
2022-11-29T21:39:59.254Z,97114.91
2022-11-29T21:42:28.006Z,97123.41
2022-11-29T21:44:54.500Z,97120.69
2022-11-29T21:47:23.571Z,97118.00
2022-11-29T21:49:52.594Z,97121.47
2022-11-29T21:52:22.583Z,97122.63
2022-11-29T21:54:50.165Z,97130.34
2022-11-29T21:57:21.319Z,97126.09
2022-11-29T21:59:47.856Z,97128.78
2022-11-29T22:02:14.445Z,97121.09
2022-11-29T22:04:46.176Z,97123.78
2022-11-29T22:07:15.520Z,97119.50
2022-11-29T22:09:42.200Z,97126.09
2022-11-29T22:12:31.946Z,97122.22
2022-11-29T22:14:57.602Z,97122.59
2022-11-29T22:17:26.360Z,97127.97
2022-11-29T22:19:52.912Z,97125.66
2022-11-29T22:22:19.541Z,97119.91
2022-11-29T22:24:46.347Z,97114.88
2022-11-29T22:27:20.196Z,97121.06
2022-11-29T22:29:49.829Z,97115.28
2022-11-29T22:32:18.822Z,97116.81
2022-11-29T22:34:47.817Z,97117.97
2022-11-29T22:37:16.977Z,97117.97
2022-11-29T22:39:43.615Z,97119.91
2022-11-29T22:42:10.209Z,97119.91
2022-11-29T22:44:36.793Z,97117.19
2022-11-29T22:47:03.447Z,97122.59
2022-11-29T22:49:30.208Z,97118.72
2022-11-29T22:51:59.042Z,97123.34
2022-11-29T22:54:30.570Z,97121.03
2022-11-29T22:56:57.162Z,97128.75
2022-11-29T22:59:23.703Z,97128.00
2022-11-29T23:01:50.827Z,97132.19
2022-11-29T23:04:19.748Z,97125.69
2022-11-29T23:06:47.006Z,97128.75
2022-11-29T23:09:16.825Z,97129.13
2022-11-29T23:11:46.568Z,97126.44
2022-11-29T23:14:13.712Z,97125.28
2022-11-29T23:16:42.759Z,97125.28
2022-11-29T23:19:09.533Z,97121.03
2022-11-29T23:21:38.748Z,97117.19
2022-11-29T23:24:05.548Z,97120.25
2022-11-29T23:26:36.529Z,97111.78
2022-11-29T23:29:04.744Z,97119.88
2022-11-29T23:31:33.903Z,97120.25
2022-11-29T23:34:03.717Z,97117.19
2022-11-29T23:36:32.789Z,97116.78
2022-11-29T23:39:04.306Z,97125.25
2022-11-29T23:41:30.847Z,97116.81
2022-11-29T23:43:59.839Z,97117.56
2022-11-29T23:46:29.140Z,97118.72
2022-11-29T23:48:55.788Z,97119.88
2022-11-29T23:51:24.823Z,97119.88
2022-11-29T23:53:55.187Z,97121.81
2022-11-29T23:56:22.407Z,97116.03
2022-11-29T23:58:51.931Z,97121.03
